Aeroporto :
LOGIN :

Iscrizione | Disclaimer

   EN    FR    IT 

 










Sommario :    VFR   VFR Marginale   IFR   IFR Intensivo   IFR Molto Intensivo
Visibilità : 
Base nubi : 
>= 8 km
>= 3000ft
5 / 8 km
1000 / 3000 ft
1500m / 5 km
500 / 1000 ft
800 / 1500m
200 / 500 ft
< 800m
< 200 ft
Simboli :   Temporali  Nebbia  Neve Forte  Precipitazioni Forti  Vento > 20 kt
SIGMETs :   Varie  Temporali  Ghiacco  Turbolenza  Onda orograficha  Ceneri Vulcaniche






- Altitudine del aeroporto : 319 ft


EIME - Casement Air Base

ULTIMO METAR :
  • 021200Z 25013KT 9999 FEW020 SCT038 07/04 Q1017

METARs OBSOLETI :
  • 021130Z 25013KT 9999 FEW017 BKN060 06/04 Q1018
  • 021100Z 25011KT 9999 FEW018 05/04 Q1019
  • 021030Z 25011KT 9999 FEW018 SCT250 05/03 Q1019
  • 021000Z 25010KT 9999 FEW018 SCT250 05/03 Q1019
  • 020930Z 25010KT 9999 FEW017 05/03 Q1020

TAF TAF EIME
Valido dal 02 a 12 ore il 02 a 21 ore UTC


021100Z 0212/0221 26013KT 9999 FEW015 SCT040
PROB40
TEMPO 0215/0220 24015G25KT -SHRA FEW020CB
BECMG 0219/0221 23016G27KT
TEMPO 0220/0221 4000 SHRA BKN014 SCT020CB



MetMap, La meteo Aeronautica in un colpo d'occhio ! - Copyright ORBIFLY Dicembre 2007 - Disclaimer

ORBIFLY MET'MAP TEAM :

Programmazione e sviluppo : Alexandra Zaïnal
Concezione : Baudouin d'Aumeries
Aiuto per la programmazione : Marc-Olivier Méhu
Supporto tecnico e logistico : Manuel Goepfert
Aiuto per la traduzione : Arnaldo La Scala

Contatto : metmap@orbifly.com




FONTI E CREDITI :

   NOAA